Time,TemperatureF,DewpointF,PressureIn,WindDirection,WindDirectionDegrees,WindSpeedMPH,WindSpeedGustMPH,Humidity,HourlyPrecipIn,Conditions,Clouds,dailyrainin,SoftwareType,DateUTC
2013-01-10 00:13:00,51.1,50.0,30.46,NNW,344,0.0,0.0,96,0.00,,,0.00,weatherlink.com 1.10,2013-01-10 05:13:00,
2013-01-10 00:28:00,50.9,50.0,30.45,NNW,344,0.0,1.0,96,0.00,,,0.00,weatherlink.com 1.10,2013-01-10 05:28:00,
2013-01-10 00:45:00,50.6,50.0,30.45,NNW,345,0.0,1.0,96,0.00,,,0.00,weatherlink.com 1.10,2013-01-10 05:45:00,
2013-01-10 00:57:00,50.5,49.0,30.45,NNW,345,0.0,1.0,96,0.00,,,0.00,weatherlink.com 1.10,2013-01-10 05:57:00,
2013-01-10 01:12:00,50.3,49.0,30.44,NNW,345,0.0,0.0,96,0.00,,,0.00,weatherlink.com 1.10,2013-01-10 06:12:00,
2013-01-10 01:27:00,49.9,49.0,30.44,NNW,345,0.0,0.0,96,0.00,,,0.00,weatherlink.com 1.10,2013-01-10 06:27:00,
2013-01-10 01:42:00,49.9,49.0,30.45,NNW,345,0.0,1.0,96,0.00,,,0.00,weatherlink.com 1.10,2013-01-10 06:42:00,
2013-01-10 01:57:00,49.7,49.0,30.45,NNW,345,0.0,0.0,96,0.00,,,0.00,weatherlink.com 1.10,2013-01-10 06:57:00,
2013-01-10 02:12:00,49.7,49.0,30.46,NNW,345,0.0,1.0,96,0.00,,,0.00,weatherlink.com 1.10,2013-01-10 07:12:00,
2013-01-10 02:27:00,50.3,49.0,30.46,NNW,344,0.0,0.0,96,0.00,,,0.00,weatherlink.com 1.10,2013-01-10 07:27:00,
2013-01-10 02:42:00,50.2,49.0,30.46,NNW,345,0.0,0.0,96,0.00,,,0.00,weatherlink.com 1.10,2013-01-10 07:42:00,
2013-01-10 02:57:00,50.2,49.0,30.46,NNW,345,0.0,0.0,96,0.00,,,0.00,weatherlink.com 1.10,2013-01-10 07:57:00,
2013-01-10 03:12:00,50.8,50.0,30.46,NNW,344,0.0,0.0,96,0.00,,,0.00,weatherlink.com 1.10,2013-01-10 08:12:00,
2013-01-10 03:27:00,50.9,50.0,30.45,NNW,344,0.0,0.0,96,0.00,,,0.00,weatherlink.com 1.10,2013-01-10 08:27:00,
2013-01-10 03:43:00,51.0,50.0,30.45,NNW,344,0.0,0.0,96,0.00,,,0.00,weatherlink.com 1.10,2013-01-10 08:43:00,
2013-01-10 03:58:00,51.0,50.0,30.44,NNW,345,0.0,0.0,96,0.00,,,0.00,weatherlink.com 1.10,2013-01-10 08:58:00,
2013-01-10 04:13:00,51.4,50.0,30.44,NNW,345,0.0,0.0,96,0.00,,,0.00,weatherlink.com 1.10,2013-01-10 09:13:00,
2013-01-10 04:28:00,51.5,50.0,30.44,NNW,345,0.0,0.0,96,0.00,,,0.00,weatherlink.com 1.10,2013-01-10 09:28:00,
2013-01-10 04:43:00,51.6,51.0,30.44,NNW,345,0.0,0.0,96,0.00,,,0.00,weatherlink.com 1.10,2013-01-10 09:43:00,
2013-01-10 04:58:00,51.3,50.0,30.43,NNW,345,0.0,0.0,96,0.00,,,0.00,weatherlink.com 1.10,2013-01-10 09:58:00,
2013-01-10 05:13:00,50.9,50.0,30.43,NNW,345,0.0,0.0,96,0.00,,,0.00,weatherlink.com 1.10,2013-01-10 10:13:00,
2013-01-10 05:28:00,51.0,50.0,30.43,NNW,344,0.0,0.0,96,0.00,,,0.00,weatherlink.com 1.10,2013-01-10 10:28:00,
2013-01-10 05:43:00,50.7,50.0,30.43,NNW,345,0.0,0.0,96,0.00,,,0.00,weatherlink.com 1.10,2013-01-10 10:43:00,
2013-01-10 05:58:00,50.9,50.0,30.43,NNW,345,0.0,0.0,96,0.00,,,0.00,weatherlink.com 1.10,2013-01-10 10:58:00,
2013-01-10 06:13:00,50.9,50.0,30.43,NNW,345,0.0,0.0,96,0.00,,,0.00,weatherlink.com 1.10,2013-01-10 11:13:00,
2013-01-10 06:28:00,51.1,50.0,30.43,NNW,344,0.0,0.0,96,0.00,,,0.00,weatherlink.com 1.10,2013-01-10 11:28:00,
2013-01-10 06:43:00,51.1,50.0,30.43,NNW,345,0.0,0.0,96,0.00,,,0.00,weatherlink.com 1.10,2013-01-10 11:43:00,
2013-01-10 06:58:00,51.4,50.0,30.43,NNW,345,0.0,0.0,96,0.00,,,0.00,weatherlink.com 1.10,2013-01-10 11:58:00,
2013-01-10 07:13:00,51.3,50.0,30.43,NNW,345,0.0,0.0,96,0.00,,,0.00,weatherlink.com 1.10,2013-01-10 12:13:00,
2013-01-10 07:28:00,51.5,50.0,30.43,NNW,345,0.0,0.0,96,0.00,,,0.00,weatherlink.com 1.10,2013-01-10 12:28:00,
2013-01-10 07:43:00,51.5,50.0,30.43,NNW,345,0.0,0.0,96,0.00,,,0.00,weatherlink.com 1.10,2013-01-10 12:43:00,
2013-01-10 07:58:00,51.5,50.0,30.44,NNW,345,0.0,0.0,96,0.00,,,0.00,weatherlink.com 1.10,2013-01-10 12:58:00,
2013-01-10 08:13:00,51.6,51.0,30.44,NNW,345,0.0,0.0,96,0.00,,,0.00,weatherlink.com 1.10,2013-01-10 13:13:00,
2013-01-10 08:28:00,51.8,51.0,30.44,NNW,345,0.0,0.0,96,0.00,,,0.00,weatherlink.com 1.10,2013-01-10 13:28:00,
2013-01-10 08:43:00,52.0,51.0,30.44,NNW,345,0.0,0.0,96,0.00,,,0.00,weatherlink.com 1.10,2013-01-10 13:43:00,
2013-01-10 08:58:00,52.3,51.0,30.44,NNW,345,0.0,0.0,96,0.00,,,0.00,weatherlink.com 1.10,2013-01-10 13:58:00,
2013-01-10 09:13:00,53.0,52.0,30.44,NNW,345,0.0,0.0,96,0.00,,,0.00,weatherlink.com 1.10,2013-01-10 14:13:00,
2013-01-10 09:28:00,53.8,53.0,30.44,NNW,345,0.0,0.0,97,0.00,,,0.00,weatherlink.com 1.10,2013-01-10 14:28:00,
2013-01-10 09:43:00,54.3,54.0,30.44,NNW,345,0.0,0.0,97,0.00,,,0.00,weatherlink.com 1.10,2013-01-10 14:43:00,
2013-01-10 09:58:00,54.7,54.0,30.44,NNW,345,0.0,0.0,97,0.00,,,0.00,weatherlink.com 1.10,2013-01-10 14:58:00,
2013-01-10 10:13:00,55.4,55.0,30.45,NNW,345,0.0,0.0,97,0.00,,,0.00,weatherlink.com 1.10,2013-01-10 15:13:00,
2013-01-10 10:28:00,56.2,55.0,30.45,NNW,345,0.0,0.0,97,0.00,,,0.00,weatherlink.com 1.10,2013-01-10 15:28:00,
2013-01-10 10:43:00,57.4,57.0,30.45,SW,219,0.0,0.0,97,0.00,,,0.00,weatherlink.com 1.10,2013-01-10 15:43:00,
2013-01-10 10:58:00,57.9,57.0,30.44,SW,219,0.0,0.0,96,0.00,,,0.00,weatherlink.com 1.10,2013-01-10 15:58:00,
2013-01-10 11:13:00,59.1,58.0,30.44,SW,219,0.0,0.0,96,0.00,,,0.00,weatherlink.com 1.10,2013-01-10 16:13:00,
2013-01-10 11:28:00,60.3,59.0,30.43,SSE,150,0.0,0.0,96,0.00,,,0.00,weatherlink.com 1.10,2013-01-10 16:28:00,
2013-01-10 11:43:00,61.2,58.0,30.42,SE,138,1.0,3.0,90,0.00,,,0.00,weatherlink.com 1.10,2013-01-10 16:43:00,
2013-01-10 11:58:00,62.8,58.0,30.41,ESE,120,2.0,4.0,85,0.00,,,0.00,weatherlink.com 1.10,2013-01-10 16:58:00,
2013-01-10 12:13:00,64.1,58.0,30.41,SE,133,4.0,5.0,81,0.00,,,0.00,weatherlink.com 1.10,2013-01-10 17:13:00,
2013-01-10 12:28:00,64.9,57.0,30.39,SE,131,3.0,8.0,76,0.00,,,0.00,weatherlink.com 1.10,2013-01-10 17:28:00,
2013-01-10 12:44:00,64.6,57.0,30.39,SSE,162,3.0,7.0,76,0.00,,,0.00,weatherlink.com 1.10,2013-01-10 17:44:00,
2013-01-10 12:59:00,64.4,57.0,30.38,ESE,115,1.0,6.0,76,0.00,,,0.00,weatherlink.com 1.10,2013-01-10 17:59:00,
2013-01-10 13:14:00,64.3,56.0,30.37,SE,136,2.0,5.0,75,0.00,,,0.00,weatherlink.com 1.10,2013-01-10 18:14:00,
2013-01-10 13:29:00,64.3,56.0,30.36,SSE,148,3.0,6.0,75,0.00,,,0.00,weatherlink.com 1.10,2013-01-10 18:29:00,
2013-01-10 13:44:00,64.7,56.0,30.36,SW,229,2.0,9.0,73,0.00,,,0.00,weatherlink.com 1.10,2013-01-10 18:44:00,
2013-01-10 14:14:00,65.4,55.0,30.35,SSW,205,2.0,7.0,69,0.00,,,0.00,weatherlink.com 1.10,2013-01-10 19:14:00,
2013-01-10 14:29:00,64.9,54.0,30.36,SE,131,0.0,8.0,69,0.00,,,0.00,weatherlink.com 1.10,2013-01-10 19:29:00,
2013-01-10 14:44:00,64.2,54.0,30.35,SE,145,2.0,6.0,69,0.00,,,0.00,weatherlink.com 1.10,2013-01-10 19:44:00,
2013-01-10 14:59:00,64.0,54.0,30.34,SE,132,6.0,6.0,70,0.00,,,0.00,weatherlink.com 1.10,2013-01-10 19:59:00,
2013-01-10 15:14:00,63.9,54.0,30.35,ESE,123,2.0,6.0,69,0.00,,,0.00,weatherlink.com 1.10,2013-01-10 20:14:00,
2013-01-10 15:29:00,63.7,54.0,30.34,SSW,205,5.0,6.0,70,0.00,,,0.00,weatherlink.com 1.10,2013-01-10 20:29:00,
2013-01-10 15:44:00,63.4,53.0,30.34,South,185,5.0,8.0,70,0.00,,,0.00,weatherlink.com 1.10,2013-01-10 20:44:00,
2013-01-10 15:59:00,63.1,53.0,30.35,SE,134,3.0,8.0,70,0.00,,,0.00,weatherlink.com 1.10,2013-01-10 20:59:00,
2013-01-10 16:14:00,62.8,53.0,30.34,SSE,155,4.0,8.0,71,0.00,,,0.00,weatherlink.com 1.10,2013-01-10 21:14:00,
2013-01-10 16:29:00,62.6,53.0,30.34,SSE,159,1.0,10.0,71,0.00,,,0.00,weatherlink.com 1.10,2013-01-10 21:29:00,
2013-01-10 16:44:00,62.5,53.0,30.34,SE,143,4.0,12.0,72,0.00,,,0.00,weatherlink.com 1.10,2013-01-10 21:44:00,
2013-01-10 16:59:00,62.2,53.0,30.33,SSE,153,4.0,7.0,73,0.00,,,0.00,weatherlink.com 1.10,2013-01-10 21:59:00,
2013-01-10 17:14:00,62.0,53.0,30.32,SSE,150,6.0,12.0,73,0.00,,,0.00,weatherlink.com 1.10,2013-01-10 22:14:00,
2013-01-10 17:29:00,61.8,53.0,30.32,SSE,149,2.0,12.0,74,0.00,,,0.00,weatherlink.com 1.10,2013-01-10 22:29:00,
2013-01-10 17:59:00,61.4,53.0,30.33,SSW,209,2.0,10.0,75,0.00,,,0.00,weatherlink.com 1.10,2013-01-10 22:59:00,
2013-01-10 18:29:00,60.8,54.0,30.33,SSE,167,0.0,8.0,77,0.00,,,0.00,weatherlink.com 1.10,2013-01-10 23:29:00,
2013-01-10 18:44:00,60.9,53.0,30.33,SSW,203,3.0,10.0,76,0.00,,,0.00,weatherlink.com 1.10,2013-01-10 23:44:00,
2013-01-10 18:59:00,60.8,54.0,30.31,SSE,158,5.0,9.0,77,0.00,,,0.00,weatherlink.com 1.10,2013-01-10 23:59:00,
2013-01-10 19:14:00,60.9,53.0,30.31,SSE,167,3.0,7.0,76,0.00,,,0.00,weatherlink.com 1.10,2013-01-11 00:14:00,
2013-01-10 19:29:00,60.6,53.0,30.30,SSE,163,3.0,5.0,77,0.00,,,0.00,weatherlink.com 1.10,2013-01-11 00:29:00,
2013-01-10 19:44:00,60.5,53.0,30.30,South,188,2.0,8.0,77,0.00,,,0.00,weatherlink.com 1.10,2013-01-11 00:44:00,
2013-01-10 19:59:00,60.5,53.0,30.30,SSE,167,3.0,4.0,77,0.00,,,0.00,weatherlink.com 1.10,2013-01-11 00:59:00,
2013-01-10 20:14:00,60.7,53.0,30.30,SSE,167,3.0,4.0,77,0.00,,,0.00,weatherlink.com 1.10,2013-01-11 01:14:00,
2013-01-10 20:29:00,61.0,54.0,30.30,SSE,162,2.0,11.0,77,0.00,,,0.00,weatherlink.com 1.10,2013-01-11 01:29:00,
2013-01-10 20:44:00,60.6,54.0,30.30,SE,145,6.0,7.0,79,0.00,,,0.00,weatherlink.com 1.10,2013-01-11 01:44:00,
2013-01-10 20:59:00,59.8,54.0,30.30,South,186,2.0,10.0,81,0.00,,,0.00,weatherlink.com 1.10,2013-01-11 01:59:00,
2013-01-10 21:14:00,59.7,54.0,30.29,SE,134,2.0,6.0,80,0.00,,,0.00,weatherlink.com 1.10,2013-01-11 02:14:00,
2013-01-10 21:29:00,60.1,54.0,30.30,South,181,5.0,8.0,80,0.00,,,0.00,weatherlink.com 1.10,2013-01-11 02:29:00,
2013-01-10 21:44:00,59.3,54.0,30.29,SSE,155,3.0,10.0,83,0.00,,,0.00,weatherlink.com 1.10,2013-01-11 02:44:00,
2013-01-10 21:59:00,58.4,54.0,30.29,SSW,194,2.0,10.0,86,0.00,,,0.00,weatherlink.com 1.10,2013-01-11 02:59:00,
2013-01-10 22:14:00,58.1,54.0,30.28,SSW,203,3.0,7.0,87,0.00,,,0.00,weatherlink.com 1.10,2013-01-11 03:14:00,
2013-01-10 22:29:00,57.6,54.0,30.28,SSW,194,2.0,7.0,88,0.00,,,0.00,weatherlink.com 1.10,2013-01-11 03:29:00,
2013-01-10 22:44:00,57.0,54.0,30.27,SE,143,2.0,6.0,90,0.00,,,0.00,weatherlink.com 1.10,2013-01-11 03:44:00,
2013-01-10 22:59:00,56.9,54.0,30.26,SSW,204,3.0,8.0,90,0.00,,,0.00,weatherlink.com 1.10,2013-01-11 03:59:00,
2013-01-10 23:14:00,56.9,54.0,30.25,SSE,160,3.0,9.0,91,0.00,,,0.00,weatherlink.com 1.10,2013-01-11 04:14:00,
2013-01-10 23:29:00,57.1,55.0,30.25,SSW,195,3.0,7.0,91,0.00,,,0.00,weatherlink.com 1.10,2013-01-11 04:29:00,
2013-01-10 23:44:00,57.2,55.0,30.23,South,172,4.0,6.0,91,0.00,,,0.00,weatherlink.com 1.10,2013-01-11 04:44:00,
2013-01-10 23:59:00,57.5,55.0,30.23,SSW,203,2.0,8.0,91,0.00,,,0.00,weatherlink.com 1.10,2013-01-11 04:59:00,